sensor_id;sensor_type;location;lat;lon;timestamp;temperature;humidity
39865;DHT22;25538;48.392;9.976;2022-11-18T00:00:31;8.70;99.90
39865;DHT22;25538;48.392;9.976;2022-11-18T00:02:57;8.80;99.90
39865;DHT22;25538;48.392;9.976;2022-11-18T00:05:23;8.90;99.90
39865;DHT22;25538;48.392;9.976;2022-11-18T00:07:48;8.80;99.90
39865;DHT22;25538;48.392;9.976;2022-11-18T00:10:14;8.70;99.90
39865;DHT22;25538;48.392;9.976;2022-11-18T00:12:40;8.80;99.90
39865;DHT22;25538;48.392;9.976;2022-11-18T00:15:26;8.80;99.90
39865;DHT22;25538;48.392;9.976;2022-11-18T00:17:52;8.80;99.90
39865;DHT22;25538;48.392;9.976;2022-11-18T00:20:18;8.80;99.90
39865;DHT22;25538;48.392;9.976;2022-11-18T00:22:45;8.70;99.90
39865;DHT22;25538;48.392;9.976;2022-11-18T00:25:11;8.70;99.90
39865;DHT22;25538;48.392;9.976;2022-11-18T00:27:37;8.80;99.90
39865;DHT22;25538;48.392;9.976;2022-11-18T00:30:03;8.80;99.90
39865;DHT22;25538;48.392;9.976;2022-11-18T00:32:29;8.70;99.90
39865;DHT22;25538;48.392;9.976;2022-11-18T00:34:54;8.80;99.90
39865;DHT22;25538;48.392;9.976;2022-11-18T00:37:20;8.80;99.90
39865;DHT22;25538;48.392;9.976;2022-11-18T00:39:46;8.70;99.90
39865;DHT22;25538;48.392;9.976;2022-11-18T00:42:12;8.60;99.90
39865;DHT22;25538;48.392;9.976;2022-11-18T00:44:56;8.60;99.90
39865;DHT22;25538;48.392;9.976;2022-11-18T00:47:23;8.60;99.90
39865;DHT22;25538;48.392;9.976;2022-11-18T00:49:49;8.60;99.90
39865;DHT22;25538;48.392;9.976;2022-11-18T00:52:15;8.60;99.90
39865;DHT22;25538;48.392;9.976;2022-11-18T00:54:40;8.70;99.90
39865;DHT22;25538;48.392;9.976;2022-11-18T00:57:06;8.70;99.90
39865;DHT22;25538;48.392;9.976;2022-11-18T00:59:32;8.70;99.90
39865;DHT22;25538;48.392;9.976;2022-11-18T01:01:58;8.80;99.90
39865;DHT22;25538;48.392;9.976;2022-11-18T01:04:24;8.80;99.90
39865;DHT22;25538;48.392;9.976;2022-11-18T01:06:50;8.90;99.90
39865;DHT22;25538;48.392;9.976;2022-11-18T01:09:16;8.90;99.90
39865;DHT22;25538;48.392;9.976;2022-11-18T01:11:42;8.90;99.90
39865;DHT22;25538;48.392;9.976;2022-11-18T01:14:26;8.90;99.90
39865;DHT22;25538;48.392;9.976;2022-11-18T01:16:56;8.90;99.90
39865;DHT22;25538;48.392;9.976;2022-11-18T01:19:23;8.80;99.90
39865;DHT22;25538;48.392;9.976;2022-11-18T01:21:49;8.70;99.90
39865;DHT22;25538;48.392;9.976;2022-11-18T01:24:15;8.70;99.90
39865;DHT22;25538;48.392;9.976;2022-11-18T01:26:41;8.70;99.90
39865;DHT22;25538;48.392;9.976;2022-11-18T01:29:08;8.70;99.90
39865;DHT22;25538;48.392;9.976;2022-11-18T01:31:34;8.70;99.90
39865;DHT22;25538;48.392;9.976;2022-11-18T01:34:00;8.70;99.90
39865;DHT22;25538;48.392;9.976;2022-11-18T01:36:26;8.70;99.90
39865;DHT22;25538;48.392;9.976;2022-11-18T01:38:54;8.60;99.90
39865;DHT22;25538;48.392;9.976;2022-11-18T01:41:22;8.60;99.90
39865;DHT22;25538;48.392;9.976;2022-11-18T01:43:56;8.60;99.90
39865;DHT22;25538;48.392;9.976;2022-11-18T01:46:24;8.60;99.90
39865;DHT22;25538;48.392;9.976;2022-11-18T01:49:00;8.60;99.90
39865;DHT22;25538;48.392;9.976;2022-11-18T01:51:33;8.60;99.90
39865;DHT22;25538;48.392;9.976;2022-11-18T01:54:05;8.60;99.90
39865;DHT22;25538;48.392;9.976;2022-11-18T01:56:44;8.60;99.90
39865;DHT22;25538;48.392;9.976;2022-11-18T01:59:14;8.60;99.90
39865;DHT22;25538;48.392;9.976;2022-11-18T02:01:42;8.60;99.90
39865;DHT22;25538;48.392;9.976;2022-11-18T02:04:09;8.60;99.90
39865;DHT22;25538;48.392;9.976;2022-11-18T02:06:36;8.60;99.90
39865;DHT22;25538;48.392;9.976;2022-11-18T02:09:03;8.60;99.90
39865;DHT22;25538;48.392;9.976;2022-11-18T02:11:29;8.70;99.90
39865;DHT22;25538;48.392;9.976;2022-11-18T02:14:15;8.70;99.90
39865;DHT22;25538;48.392;9.976;2022-11-18T02:19:58;8.70;99.90
39865;DHT22;25538;48.392;9.976;2022-11-18T02:23:06;8.70;99.90
39865;DHT22;25538;48.392;9.976;2022-11-18T02:31:29;8.60;99.90
39865;DHT22;25538;48.392;9.976;2022-11-18T02:34:08;8.60;99.90
39865;DHT22;25538;48.392;9.976;2022-11-18T02:36:58;8.60;99.90
39865;DHT22;25538;48.392;9.976;2022-11-18T02:39:38;8.60;99.90
39865;DHT22;25538;48.392;9.976;2022-11-18T02:42:08;8.60;99.90
39865;DHT22;25538;48.392;9.976;2022-11-18T02:44:38;8.60;99.90
39865;DHT22;25538;48.392;9.976;2022-11-18T02:47:08;8.60;99.90
39865;DHT22;25538;48.392;9.976;2022-11-18T02:49:42;8.60;99.90
39865;DHT22;25538;48.392;9.976;2022-11-18T02:52:10;8.60;99.90
39865;DHT22;25538;48.392;9.976;2022-11-18T02:54:40;8.70;99.90
39865;DHT22;25538;48.392;9.976;2022-11-18T02:57:07;8.60;99.90
39865;DHT22;25538;48.392;9.976;2022-11-18T02:59:33;8.70;99.90
39865;DHT22;25538;48.392;9.976;2022-11-18T03:01:59;8.70;99.90
39865;DHT22;25538;48.392;9.976;2022-11-18T03:04:25;8.70;99.90
39865;DHT22;25538;48.392;9.976;2022-11-18T03:07:11;8.70;99.90
39865;DHT22;25538;48.392;9.976;2022-11-18T03:09:40;8.70;99.90
39865;DHT22;25538;48.392;9.976;2022-11-18T03:25:18;8.70;99.90
39865;DHT22;25538;48.392;9.976;2022-11-18T03:28:05;8.70;99.90
39865;DHT22;25538;48.392;9.976;2022-11-18T03:30:37;8.70;99.90
39865;DHT22;25538;48.392;9.976;2022-11-18T03:33:09;8.70;99.90
39865;DHT22;25538;48.392;9.976;2022-11-18T03:35:39;8.70;99.90
39865;DHT22;25538;48.392;9.976;2022-11-18T03:38:19;8.70;99.90
39865;DHT22;25538;48.392;9.976;2022-11-18T03:40:50;8.60;99.90
39865;DHT22;25538;48.392;9.976;2022-11-18T03:43:22;8.60;99.90
39865;DHT22;25538;48.392;9.976;2022-11-18T03:45:52;8.60;99.90
39865;DHT22;25538;48.392;9.976;2022-11-18T03:48:24;8.60;99.90
39865;DHT22;25538;48.392;9.976;2022-11-18T03:50:58;8.60;99.90
39865;DHT22;25538;48.392;9.976;2022-11-18T03:53:27;8.60;99.90
39865;DHT22;25538;48.392;9.976;2022-11-18T03:56:15;8.60;99.90
39865;DHT22;25538;48.392;9.976;2022-11-18T03:58:46;8.60;99.90
39865;DHT22;25538;48.392;9.976;2022-11-18T04:01:18;8.70;99.90
39865;DHT22;25538;48.392;9.976;2022-11-18T04:03:46;8.70;99.90
39865;DHT22;25538;48.392;9.976;2022-11-18T04:06:45;8.70;99.90
39865;DHT22;25538;48.392;9.976;2022-11-18T04:09:22;8.60;99.90
39865;DHT22;25538;48.392;9.976;2022-11-18T04:11:53;8.50;99.90
39865;DHT22;25538;48.392;9.976;2022-11-18T04:14:31;8.50;99.90
39865;DHT22;25538;48.392;9.976;2022-11-18T04:16:58;8.60;99.90
39865;DHT22;25538;48.392;9.976;2022-11-18T04:19:23;8.60;99.90
39865;DHT22;25538;48.392;9.976;2022-11-18T04:21:50;8.50;99.90
39865;DHT22;25538;48.392;9.976;2022-11-18T04:24:16;8.50;99.90
39865;DHT22;25538;48.392;9.976;2022-11-18T04:26:42;8.50;99.90
39865;DHT22;25538;48.392;9.976;2022-11-18T04:29:08;8.60;99.90
39865;DHT22;25538;48.392;9.976;2022-11-18T04:31:34;8.50;99.90
39865;DHT22;25538;48.392;9.976;2022-11-18T04:33:59;8.50;99.90
39865;DHT22;25538;48.392;9.976;2022-11-18T04:36:25;8.50;99.90
39865;DHT22;25538;48.392;9.976;2022-11-18T04:38:51;8.40;99.90
39865;DHT22;25538;48.392;9.976;2022-11-18T04:41:17;8.40;99.90
39865;DHT22;25538;48.392;9.976;2022-11-18T04:43:43;8.40;99.90
39865;DHT22;25538;48.392;9.976;2022-11-18T04:46:09;8.30;99.90
39865;DHT22;25538;48.392;9.976;2022-11-18T04:48:35;8.40;99.90
39865;DHT22;25538;48.392;9.976;2022-11-18T04:51:04;8.30;99.90
39865;DHT22;25538;48.392;9.976;2022-11-18T04:53:30;8.30;99.90
39865;DHT22;25538;48.392;9.976;2022-11-18T04:56:02;8.30;99.90
39865;DHT22;25538;48.392;9.976;2022-11-18T04:58:28;8.20;99.90
39865;DHT22;25538;48.392;9.976;2022-11-18T05:00:54;8.20;99.90
39865;DHT22;25538;48.392;9.976;2022-11-18T05:03:20;8.20;99.90
39865;DHT22;25538;48.392;9.976;2022-11-18T05:05:45;8.10;99.90
39865;DHT22;25538;48.392;9.976;2022-11-18T05:08:11;8.10;99.90
39865;DHT22;25538;48.392;9.976;2022-11-18T05:10:37;8.10;99.90
39865;DHT22;25538;48.392;9.976;2022-11-18T05:13:03;8.10;99.90
39865;DHT22;25538;48.392;9.976;2022-11-18T05:15:29;8.00;99.90
39865;DHT22;25538;48.392;9.976;2022-11-18T05:17:55;8.00;99.90
39865;DHT22;25538;48.392;9.976;2022-11-18T05:20:21;8.00;99.90
39865;DHT22;25538;48.392;9.976;2022-11-18T05:22:47;8.00;99.90
39865;DHT22;25538;48.392;9.976;2022-11-18T05:25:13;8.00;99.90
39865;DHT22;25538;48.392;9.976;2022-11-18T05:27:38;7.90;99.90
39865;DHT22;25538;48.392;9.976;2022-11-18T05:30:05;7.90;99.90
39865;DHT22;25538;48.392;9.976;2022-11-18T05:32:31;7.90;99.90
39865;DHT22;25538;48.392;9.976;2022-11-18T05:34:57;7.90;99.90
39865;DHT22;25538;48.392;9.976;2022-11-18T05:37:23;7.90;99.90
39865;DHT22;25538;48.392;9.976;2022-11-18T05:39:49;7.90;99.90
39865;DHT22;25538;48.392;9.976;2022-11-18T05:42:14;7.90;99.90
39865;DHT22;25538;48.392;9.976;2022-11-18T05:44:59;7.80;99.90
39865;DHT22;25538;48.392;9.976;2022-11-18T05:47:25;7.90;99.90
39865;DHT22;25538;48.392;9.976;2022-11-18T05:49:51;7.90;99.90
39865;DHT22;25538;48.392;9.976;2022-11-18T05:52:17;7.80;99.90
39865;DHT22;25538;48.392;9.976;2022-11-18T05:54:49;7.90;99.90
39865;DHT22;25538;48.392;9.976;2022-11-18T05:57:15;7.80;99.90
39865;DHT22;25538;48.392;9.976;2022-11-18T05:59:41;7.80;99.90
39865;DHT22;25538;48.392;9.976;2022-11-18T06:02:15;7.80;99.90
39865;DHT22;25538;48.392;9.976;2022-11-18T06:04:51;7.80;99.90
39865;DHT22;25538;48.392;9.976;2022-11-18T06:07:28;7.90;99.90
39865;DHT22;25538;48.392;9.976;2022-11-18T06:09:58;7.90;99.90
39865;DHT22;25538;48.392;9.976;2022-11-18T06:12:28;7.90;99.90
39865;DHT22;25538;48.392;9.976;2022-11-18T06:15:14;7.80;99.90
39865;DHT22;25538;48.392;9.976;2022-11-18T06:17:50;7.80;99.90
39865;DHT22;25538;48.392;9.976;2022-11-18T06:20:18;7.80;99.90
39865;DHT22;25538;48.392;9.976;2022-11-18T06:22:47;7.80;99.90
39865;DHT22;25538;48.392;9.976;2022-11-18T06:25:14;7.70;99.90
39865;DHT22;25538;48.392;9.976;2022-11-18T06:27:40;7.70;99.90
39865;DHT22;25538;48.392;9.976;2022-11-18T06:30:07;7.70;99.90
39865;DHT22;25538;48.392;9.976;2022-11-18T06:32:33;7.60;99.90
39865;DHT22;25538;48.392;9.976;2022-11-18T06:34:58;7.60;99.90
39865;DHT22;25538;48.392;9.976;2022-11-18T06:37:24;7.50;99.90
39865;DHT22;25538;48.392;9.976;2022-11-18T06:39:50;7.50;99.90
39865;DHT22;25538;48.392;9.976;2022-11-18T06:42:16;7.40;99.90
39865;DHT22;25538;48.392;9.976;2022-11-18T06:45:02;7.40;99.90
39865;DHT22;25538;48.392;9.976;2022-11-18T06:47:28;7.50;99.90
39865;DHT22;25538;48.392;9.976;2022-11-18T06:49:54;7.50;99.90
39865;DHT22;25538;48.392;9.976;2022-11-18T06:52:21;7.50;99.90
39865;DHT22;25538;48.392;9.976;2022-11-18T06:54:47;7.50;99.90
39865;DHT22;25538;48.392;9.976;2022-11-18T06:57:13;7.50;99.90
39865;DHT22;25538;48.392;9.976;2022-11-18T06:59:39;7.50;99.90
39865;DHT22;25538;48.392;9.976;2022-11-18T07:02:05;7.50;99.90
39865;DHT22;25538;48.392;9.976;2022-11-18T07:04:30;7.40;99.90
39865;DHT22;25538;48.392;9.976;2022-11-18T07:06:58;7.50;99.90
39865;DHT22;25538;48.392;9.976;2022-11-18T07:09:24;7.50;99.90
39865;DHT22;25538;48.392;9.976;2022-11-18T07:11:49;7.60;99.90
39865;DHT22;25538;48.392;9.976;2022-11-18T07:14:15;7.60;99.90
39865;DHT22;25538;48.392;9.976;2022-11-18T07:16:41;7.60;99.90
39865;DHT22;25538;48.392;9.976;2022-11-18T07:19:09;7.60;99.90
39865;DHT22;25538;48.392;9.976;2022-11-18T07:21:35;7.70;99.90
39865;DHT22;25538;48.392;9.976;2022-11-18T07:24:07;7.70;99.90
39865;DHT22;25538;48.392;9.976;2022-11-18T07:26:34;7.70;99.90
39865;DHT22;25538;48.392;9.976;2022-11-18T07:29:00;7.80;99.90
39865;DHT22;25538;48.392;9.976;2022-11-18T07:31:26;7.80;99.90
39865;DHT22;25538;48.392;9.976;2022-11-18T07:33:52;7.70;99.90
39865;DHT22;25538;48.392;9.976;2022-11-18T07:36:23;7.70;99.90
39865;DHT22;25538;48.392;9.976;2022-11-18T07:38:50;7.70;99.90
39865;DHT22;25538;48.392;9.976;2022-11-18T07:41:17;7.70;99.90
39865;DHT22;25538;48.392;9.976;2022-11-18T07:43:44;7.80;99.90
39865;DHT22;25538;48.392;9.976;2022-11-18T07:46:21;7.90;99.90
39865;DHT22;25538;48.392;9.976;2022-11-18T07:48:49;8.00;99.90
39865;DHT22;25538;48.392;9.976;2022-11-18T07:51:17;8.00;99.90
39865;DHT22;25538;48.392;9.976;2022-11-18T07:53:43;8.00;99.90
39865;DHT22;25538;48.392;9.976;2022-11-18T07:56:10;8.10;99.90
39865;DHT22;25538;48.392;9.976;2022-11-18T07:58:36;8.20;99.90
39865;DHT22;25538;48.392;9.976;2022-11-18T08:01:11;8.20;99.90
39865;DHT22;25538;48.392;9.976;2022-11-18T08:03:38;8.20;99.90
39865;DHT22;25538;48.392;9.976;2022-11-18T08:06:06;8.20;99.90
39865;DHT22;25538;48.392;9.976;2022-11-18T08:08:32;8.20;99.90
39865;DHT22;25538;48.392;9.976;2022-11-18T08:11:00;8.30;99.90
39865;DHT22;25538;48.392;9.976;2022-11-18T08:13:27;8.30;99.90
39865;DHT22;25538;48.392;9.976;2022-11-18T08:15:54;8.40;99.90
39865;DHT22;25538;48.392;9.976;2022-11-18T08:18:21;8.40;99.90
39865;DHT22;25538;48.392;9.976;2022-11-18T08:20:47;8.50;99.90
39865;DHT22;25538;48.392;9.976;2022-11-18T08:23:14;8.50;99.90
39865;DHT22;25538;48.392;9.976;2022-11-18T08:25:42;8.60;99.90
39865;DHT22;25538;48.392;9.976;2022-11-18T08:28:08;8.70;99.90
39865;DHT22;25538;48.392;9.976;2022-11-18T08:30:34;8.70;99.90
39865;DHT22;25538;48.392;9.976;2022-11-18T08:33:01;8.80;99.90
39865;DHT22;25538;48.392;9.976;2022-11-18T08:35:28;8.80;99.90
39865;DHT22;25538;48.392;9.976;2022-11-18T08:37:54;8.80;99.90
39865;DHT22;25538;48.392;9.976;2022-11-18T08:40:20;8.80;99.90
39865;DHT22;25538;48.392;9.976;2022-11-18T08:42:46;8.90;99.90
39865;DHT22;25538;48.392;9.976;2022-11-18T08:45:12;8.90;99.90
39865;DHT22;25538;48.392;9.976;2022-11-18T08:47:38;8.90;99.90
39865;DHT22;25538;48.392;9.976;2022-11-18T08:50:07;9.10;99.90
39865;DHT22;25538;48.392;9.976;2022-11-18T08:52:33;9.30;99.90
39865;DHT22;25538;48.392;9.976;2022-11-18T08:54:59;9.50;99.90
39865;DHT22;25538;48.392;9.976;2022-11-18T08:57:25;9.60;99.90
39865;DHT22;25538;48.392;9.976;2022-11-18T08:59:51;9.70;99.90
39865;DHT22;25538;48.392;9.976;2022-11-18T09:02:21;9.70;99.90
39865;DHT22;25538;48.392;9.976;2022-11-18T09:04:49;9.60;99.90
39865;DHT22;25538;48.392;9.976;2022-11-18T09:07:19;9.40;99.90
39865;DHT22;25538;48.392;9.976;2022-11-18T09:09:46;9.40;99.90
39865;DHT22;25538;48.392;9.976;2022-11-18T09:12:12;9.40;99.90
39865;DHT22;25538;48.392;9.976;2022-11-18T09:14:43;9.20;99.90
39865;DHT22;25538;48.392;9.976;2022-11-18T09:17:10;9.00;99.90
39865;DHT22;25538;48.392;9.976;2022-11-18T09:19:36;8.90;99.90
39865;DHT22;25538;48.392;9.976;2022-11-18T09:22:03;8.80;99.90
39865;DHT22;25538;48.392;9.976;2022-11-18T09:24:29;8.80;99.90
39865;DHT22;25538;48.392;9.976;2022-11-18T09:26:55;8.80;99.90
39865;DHT22;25538;48.392;9.976;2022-11-18T09:29:21;8.70;99.90
39865;DHT22;25538;48.392;9.976;2022-11-18T09:31:54;8.80;99.90
39865;DHT22;25538;48.392;9.976;2022-11-18T09:34:20;8.80;99.90
39865;DHT22;25538;48.392;9.976;2022-11-18T09:36:46;8.80;99.90
39865;DHT22;25538;48.392;9.976;2022-11-18T09:39:12;8.70;99.90
39865;DHT22;25538;48.392;9.976;2022-11-18T09:41:46;8.70;99.90
39865;DHT22;25538;48.392;9.976;2022-11-18T09:44:33;8.70;99.90
39865;DHT22;25538;48.392;9.976;2022-11-18T09:49:52;8.80;99.90
39865;DHT22;25538;48.392;9.976;2022-11-18T09:54:51;8.90;99.90
39865;DHT22;25538;48.392;9.976;2022-11-18T09:57:25;8.90;99.90
39865;DHT22;25538;48.392;9.976;2022-11-18T09:59:51;9.00;99.90
39865;DHT22;25538;48.392;9.976;2022-11-18T10:05:00;9.00;99.90
39865;DHT22;25538;48.392;9.976;2022-11-18T10:07:42;9.10;99.90
39865;DHT22;25538;48.392;9.976;2022-11-18T10:10:17;9.20;99.90
39865;DHT22;25538;48.392;9.976;2022-11-18T10:12:49;9.20;99.90
39865;DHT22;25538;48.392;9.976;2022-11-18T10:15:36;9.10;99.90
39865;DHT22;25538;48.392;9.976;2022-11-18T10:18:51;9.10;99.90
39865;DHT22;25538;48.392;9.976;2022-11-18T10:24:19;9.10;99.90
39865;DHT22;25538;48.392;9.976;2022-11-18T10:26:45;9.10;99.90
39865;DHT22;25538;48.392;9.976;2022-11-18T10:29:11;9.10;99.90
39865;DHT22;25538;48.392;9.976;2022-11-18T10:31:53;9.10;99.90
39865;DHT22;25538;48.392;9.976;2022-11-18T10:34:19;9.10;99.90
39865;DHT22;25538;48.392;9.976;2022-11-18T10:37:01;9.10;99.90
39865;DHT22;25538;48.392;9.976;2022-11-18T10:39:27;9.30;99.90
39865;DHT22;25538;48.392;9.976;2022-11-18T10:42:03;9.30;99.90
39865;DHT22;25538;48.392;9.976;2022-11-18T10:44:38;9.30;99.90
39865;DHT22;25538;48.392;9.976;2022-11-18T10:47:30;9.30;99.90
39865;DHT22;25538;48.392;9.976;2022-11-18T10:50:01;9.30;99.90
39865;DHT22;25538;48.392;9.976;2022-11-18T10:52:29;9.30;99.90
39865;DHT22;25538;48.392;9.976;2022-11-18T10:57:40;9.10;99.90
39865;DHT22;25538;48.392;9.976;2022-11-18T11:03:25;9.00;99.90
39865;DHT22;25538;48.392;9.976;2022-11-18T11:08:59;9.10;99.90
39865;DHT22;25538;48.392;9.976;2022-11-18T11:11:34;9.20;99.90
39865;DHT22;25538;48.392;9.976;2022-11-18T11:14:13;9.40;99.90
39865;DHT22;25538;48.392;9.976;2022-11-18T11:19:28;9.60;99.90
39865;DHT22;25538;48.392;9.976;2022-11-18T11:21:56;9.80;99.90
39865;DHT22;25538;48.392;9.976;2022-11-18T11:24:24;9.90;99.90
39865;DHT22;25538;48.392;9.976;2022-11-18T11:35:41;10.80;99.90
39865;DHT22;25538;48.392;9.976;2022-11-18T11:40:55;11.10;99.90
39865;DHT22;25538;48.392;9.976;2022-11-18T11:49:27;11.30;99.90
39865;DHT22;25538;48.392;9.976;2022-11-18T11:52:04;11.90;99.90
39865;DHT22;25538;48.392;9.976;2022-11-18T11:54:56;12.60;99.90
39865;DHT22;25538;48.392;9.976;2022-11-18T12:00:13;14.40;99.90
39865;DHT22;25538;48.392;9.976;2022-11-18T12:02:59;13.80;99.90
39865;DHT22;25538;48.392;9.976;2022-11-18T12:05:37;14.00;99.90
39865;DHT22;25538;48.392;9.976;2022-11-18T12:08:19;14.70;99.90
39865;DHT22;25538;48.392;9.976;2022-11-18T12:10:52;15.20;99.90
39865;DHT22;25538;48.392;9.976;2022-11-18T12:13:24;15.30;99.90
39865;DHT22;25538;48.392;9.976;2022-11-18T12:16:14;15.50;99.90
39865;DHT22;25538;48.392;9.976;2022-11-18T12:18:52;15.70;99.90
39865;DHT22;25538;48.392;9.976;2022-11-18T12:24:33;14.30;99.90
39865;DHT22;25538;48.392;9.976;2022-11-18T12:27:04;13.50;99.90
39865;DHT22;25538;48.392;9.976;2022-11-18T12:29:34;13.00;99.90
39865;DHT22;25538;48.392;9.976;2022-11-18T12:32:01;12.60;99.90
39865;DHT22;25538;48.392;9.976;2022-11-18T12:34:37;12.20;99.90
39865;DHT22;25538;48.392;9.976;2022-11-18T12:39:57;11.80;99.90
39865;DHT22;25538;48.392;9.976;2022-11-18T12:42:41;11.80;99.90
39865;DHT22;25538;48.392;9.976;2022-11-18T12:50:54;11.30;99.90
39865;DHT22;25538;48.392;9.976;2022-11-18T12:53:38;11.30;99.90
39865;DHT22;25538;48.392;9.976;2022-11-18T12:58:49;11.30;99.90
39865;DHT22;25538;48.392;9.976;2022-11-18T13:01:21;11.10;99.90
39865;DHT22;25538;48.392;9.976;2022-11-18T13:03:47;11.00;99.90
39865;DHT22;25538;48.392;9.976;2022-11-18T13:06:28;10.80;99.90
39865;DHT22;25538;48.392;9.976;2022-11-18T13:08:58;10.50;99.90
39865;DHT22;25538;48.392;9.976;2022-11-18T13:11:27;10.20;99.90
39865;DHT22;25538;48.392;9.976;2022-11-18T13:14:19;10.10;99.90
39865;DHT22;25538;48.392;9.976;2022-11-18T13:17:33;10.00;99.90
39865;DHT22;25538;48.392;9.976;2022-11-18T13:20:30;9.80;99.90
39865;DHT22;25538;48.392;9.976;2022-11-18T13:22:58;9.60;99.90
39865;DHT22;25538;48.392;9.976;2022-11-18T13:25:44;9.50;99.90
39865;DHT22;25538;48.392;9.976;2022-11-18T13:28:19;9.50;99.90
39865;DHT22;25538;48.392;9.976;2022-11-18T13:31:12;9.60;99.90
39865;DHT22;25538;48.392;9.976;2022-11-18T13:33:40;9.70;99.90
39865;DHT22;25538;48.392;9.976;2022-11-18T13:36:32;9.90;99.90
39865;DHT22;25538;48.392;9.976;2022-11-18T13:39:04;10.60;99.90
39865;DHT22;25538;48.392;9.976;2022-11-18T13:41:33;10.90;99.90
39865;DHT22;25538;48.392;9.976;2022-11-18T13:44:18;11.20;99.90
39865;DHT22;25538;48.392;9.976;2022-11-18T13:46:50;11.20;99.90
39865;DHT22;25538;48.392;9.976;2022-11-18T13:49:23;11.10;99.90
39865;DHT22;25538;48.392;9.976;2022-11-18T13:51:53;11.00;99.90
39865;DHT22;25538;48.392;9.976;2022-11-18T13:54:23;10.80;99.90
39865;DHT22;25538;48.392;9.976;2022-11-18T13:56:50;11.00;99.90
39865;DHT22;25538;48.392;9.976;2022-11-18T13:59:22;11.60;99.90
39865;DHT22;25538;48.392;9.976;2022-11-18T14:01:57;11.90;99.90
39865;DHT22;25538;48.392;9.976;2022-11-18T14:04:26;12.00;99.90
39865;DHT22;25538;48.392;9.976;2022-11-18T14:07:30;12.50;99.90
39865;DHT22;25538;48.392;9.976;2022-11-18T14:10:04;12.60;99.90
39865;DHT22;25538;48.392;9.976;2022-11-18T14:12:32;12.20;99.90
39865;DHT22;25538;48.392;9.976;2022-11-18T14:17:56;11.30;99.90
39865;DHT22;25538;48.392;9.976;2022-11-18T14:20:25;10.70;99.90
39865;DHT22;25538;48.392;9.976;2022-11-18T14:22:54;10.90;99.90
39865;DHT22;25538;48.392;9.976;2022-11-18T14:27:53;11.10;99.90
39865;DHT22;25538;48.392;9.976;2022-11-18T14:33:18;11.00;99.90
39865;DHT22;25538;48.392;9.976;2022-11-18T14:35:58;10.80;99.90
39865;DHT22;25538;48.392;9.976;2022-11-18T14:38:48;10.70;99.90
39865;DHT22;25538;48.392;9.976;2022-11-18T14:41:17;10.40;99.90
39865;DHT22;25538;48.392;9.976;2022-11-18T14:44:06;10.20;99.90
39865;DHT22;25538;48.392;9.976;2022-11-18T14:46:34;10.10;99.90
39865;DHT22;25538;48.392;9.976;2022-11-18T14:49:02;10.30;99.90
39865;DHT22;25538;48.392;9.976;2022-11-18T14:51:28;10.50;99.90
39865;DHT22;25538;48.392;9.976;2022-11-18T14:53:54;10.50;99.90
39865;DHT22;25538;48.392;9.976;2022-11-18T14:56:26;10.60;99.90
39865;DHT22;25538;48.392;9.976;2022-11-18T14:58:53;10.50;99.90
39865;DHT22;25538;48.392;9.976;2022-11-18T15:01:20;10.20;99.90
39865;DHT22;25538;48.392;9.976;2022-11-18T15:03:46;10.10;99.90
39865;DHT22;25538;48.392;9.976;2022-11-18T15:06:17;9.90;99.90
39865;DHT22;25538;48.392;9.976;2022-11-18T15:08:44;9.70;99.90
39865;DHT22;25538;48.392;9.976;2022-11-18T15:11:11;9.50;99.90
39865;DHT22;25538;48.392;9.976;2022-11-18T15:13:38;9.30;99.90
39865;DHT22;25538;48.392;9.976;2022-11-18T15:16:22;9.20;99.90
39865;DHT22;25538;48.392;9.976;2022-11-18T15:18:51;9.10;99.90
39865;DHT22;25538;48.392;9.976;2022-11-18T15:21:18;8.90;99.90
39865;DHT22;25538;48.392;9.976;2022-11-18T15:23:44;8.80;99.90
39865;DHT22;25538;48.392;9.976;2022-11-18T15:26:22;8.70;99.90
39865;DHT22;25538;48.392;9.976;2022-11-18T15:28:50;8.70;99.90
39865;DHT22;25538;48.392;9.976;2022-11-18T15:31:16;8.60;99.90
39865;DHT22;25538;48.392;9.976;2022-11-18T15:33:43;8.60;99.90
39865;DHT22;25538;48.392;9.976;2022-11-18T15:38:43;8.60;99.90
39865;DHT22;25538;48.392;9.976;2022-11-18T15:41:15;8.60;99.90
39865;DHT22;25538;48.392;9.976;2022-11-18T15:43:43;8.50;99.90
39865;DHT22;25538;48.392;9.976;2022-11-18T15:46:09;8.50;99.90
39865;DHT22;25538;48.392;9.976;2022-11-18T15:48:35;8.50;99.90
39865;DHT22;25538;48.392;9.976;2022-11-18T15:51:01;8.40;99.90
39865;DHT22;25538;48.392;9.976;2022-11-18T15:53:26;8.40;99.90
39865;DHT22;25538;48.392;9.976;2022-11-18T15:56:19;8.30;99.90
39865;DHT22;25538;48.392;9.976;2022-11-18T15:58:58;8.20;99.90
39865;DHT22;25538;48.392;9.976;2022-11-18T16:01:27;8.20;99.90
39865;DHT22;25538;48.392;9.976;2022-11-18T16:03:53;8.20;99.90
39865;DHT22;25538;48.392;9.976;2022-11-18T16:06:20;8.10;99.90
39865;DHT22;25538;48.392;9.976;2022-11-18T16:08:46;8.10;99.90
39865;DHT22;25538;48.392;9.976;2022-11-18T16:11:14;8.00;99.90
39865;DHT22;25538;48.392;9.976;2022-11-18T16:14:03;8.00;99.90
39865;DHT22;25538;48.392;9.976;2022-11-18T16:16:30;7.90;99.90
39865;DHT22;25538;48.392;9.976;2022-11-18T16:18:58;7.90;99.90
39865;DHT22;25538;48.392;9.976;2022-11-18T16:21:24;7.90;99.90
39865;DHT22;25538;48.392;9.976;2022-11-18T16:23:55;8.00;99.90
39865;DHT22;25538;48.392;9.976;2022-11-18T16:26:23;8.00;99.90
39865;DHT22;25538;48.392;9.976;2022-11-18T16:28:49;8.00;99.90
39865;DHT22;25538;48.392;9.976;2022-11-18T16:31:15;7.90;99.90
39865;DHT22;25538;48.392;9.976;2022-11-18T16:34:07;7.90;99.90
39865;DHT22;25538;48.392;9.976;2022-11-18T16:36:34;7.80;99.90
39865;DHT22;25538;48.392;9.976;2022-11-18T16:39:08;7.80;99.90
39865;DHT22;25538;48.392;9.976;2022-11-18T16:41:35;7.70;99.90
39865;DHT22;25538;48.392;9.976;2022-11-18T16:44:06;7.70;99.90
39865;DHT22;25538;48.392;9.976;2022-11-18T16:46:34;7.60;99.90
39865;DHT22;25538;48.392;9.976;2022-11-18T16:49:01;7.60;99.90
39865;DHT22;25538;48.392;9.976;2022-11-18T16:51:29;7.60;99.90
39865;DHT22;25538;48.392;9.976;2022-11-18T16:53:56;7.50;99.90
39865;DHT22;25538;48.392;9.976;2022-11-18T16:56:25;7.40;99.90
39865;DHT22;25538;48.392;9.976;2022-11-18T16:59:03;7.40;99.90
39865;DHT22;25538;48.392;9.976;2022-11-18T17:01:29;7.40;99.90
39865;DHT22;25538;48.392;9.976;2022-11-18T17:03:56;7.40;99.90
39865;DHT22;25538;48.392;9.976;2022-11-18T17:06:23;7.30;99.90
39865;DHT22;25538;48.392;9.976;2022-11-18T17:08:49;7.30;99.90
39865;DHT22;25538;48.392;9.976;2022-11-18T17:11:16;7.30;99.90
39865;DHT22;25538;48.392;9.976;2022-11-18T17:13:42;7.30;99.90
39865;DHT22;25538;48.392;9.976;2022-11-18T17:16:14;7.30;99.90
39865;DHT22;25538;48.392;9.976;2022-11-18T17:18:41;7.30;99.90
39865;DHT22;25538;48.392;9.976;2022-11-18T17:21:15;7.30;99.90
39865;DHT22;25538;48.392;9.976;2022-11-18T17:23:47;7.30;99.90
39865;DHT22;25538;48.392;9.976;2022-11-18T17:26:15;7.20;99.90
39865;DHT22;25538;48.392;9.976;2022-11-18T17:28:41;7.20;99.90
39865;DHT22;25538;48.392;9.976;2022-11-18T17:31:12;7.20;99.90
39865;DHT22;25538;48.392;9.976;2022-11-18T17:33:39;7.20;99.90